sensor_id;sensor_type;location;lat;lon;timestamp;P1;durP1;ratioP1;P2;durP2;ratioP2
7789;SDS011;3939;57.130;-2.086;2022-12-18T00:01:58;5.93;;;3.77;;
7789;SDS011;3939;57.130;-2.086;2022-12-18T00:04:24;7.17;;;3.30;;
7789;SDS011;3939;57.130;-2.086;2022-12-18T00:06:51;6.77;;;3.50;;
7789;SDS011;3939;57.130;-2.086;2022-12-18T00:09:17;4.97;;;3.03;;
7789;SDS011;3939;57.130;-2.086;2022-12-18T00:11:43;4.47;;;3.00;;
7789;SDS011;3939;57.130;-2.086;2022-12-18T00:14:10;8.43;;;2.83;;
7789;SDS011;3939;57.130;-2.086;2022-12-18T00:16:37;5.97;;;2.90;;
7789;SDS011;3939;57.130;-2.086;2022-12-18T00:19:03;5.23;;;3.07;;
7789;SDS011;3939;57.130;-2.086;2022-12-18T00:21:29;4.07;;;2.70;;
7789;SDS011;3939;57.130;-2.086;2022-12-18T00:23:57;6.00;;;2.93;;
7789;SDS011;3939;57.130;-2.086;2022-12-18T00:26:30;6.53;;;3.10;;
7789;SDS011;3939;57.130;-2.086;2022-12-18T00:28:58;10.10;;;3.87;;
7789;SDS011;3939;57.130;-2.086;2022-12-18T00:31:25;5.93;;;3.27;;
7789;SDS011;3939;57.130;-2.086;2022-12-18T00:33:51;7.73;;;3.40;;
7789;SDS011;3939;57.130;-2.086;2022-12-18T00:36:20;6.40;;;3.17;;
7789;SDS011;3939;57.130;-2.086;2022-12-18T00:38:48;4.07;;;2.57;;
7789;SDS011;3939;57.130;-2.086;2022-12-18T00:41:15;4.47;;;2.83;;
7789;SDS011;3939;57.130;-2.086;2022-12-18T00:44:02;4.87;;;2.67;;
7789;SDS011;3939;57.130;-2.086;2022-12-18T00:46:28;5.17;;;2.73;;
7789;SDS011;3939;57.130;-2.086;2022-12-18T00:48:54;5.20;;;2.73;;
7789;SDS011;3939;57.130;-2.086;2022-12-18T00:51:20;7.07;;;2.67;;
7789;SDS011;3939;57.130;-2.086;2022-12-18T00:53:45;5.83;;;2.63;;
7789;SDS011;3939;57.130;-2.086;2022-12-18T00:56:11;5.30;;;2.53;;
7789;SDS011;3939;57.130;-2.086;2022-12-18T00:58:37;5.77;;;2.73;;
7789;SDS011;3939;57.130;-2.086;2022-12-18T01:01:06;6.50;;;3.00;;
7789;SDS011;3939;57.130;-2.086;2022-12-18T01:03:32;4.60;;;2.60;;
7789;SDS011;3939;57.130;-2.086;2022-12-18T01:05:58;3.70;;;2.50;;
7789;SDS011;3939;57.130;-2.086;2022-12-18T01:08:23;4.60;;;3.00;;
7789;SDS011;3939;57.130;-2.086;2022-12-18T01:10:49;5.40;;;2.90;;
7789;SDS011;3939;57.130;-2.086;2022-12-18T01:13:15;5.07;;;2.50;;
7789;SDS011;3939;57.130;-2.086;2022-12-18T01:15:47;8.97;;;3.27;;
7789;SDS011;3939;57.130;-2.086;2022-12-18T01:18:14;5.30;;;2.83;;
7789;SDS011;3939;57.130;-2.086;2022-12-18T01:20:39;2.93;;;2.50;;
7789;SDS011;3939;57.130;-2.086;2022-12-18T01:23:05;7.37;;;2.97;;
7789;SDS011;3939;57.130;-2.086;2022-12-18T01:25:32;7.53;;;2.63;;
7789;SDS011;3939;57.130;-2.086;2022-12-18T01:28:00;5.07;;;2.77;;
7789;SDS011;3939;57.130;-2.086;2022-12-18T01:30:26;3.73;;;2.60;;
7789;SDS011;3939;57.130;-2.086;2022-12-18T01:32:52;4.70;;;2.80;;
7789;SDS011;3939;57.130;-2.086;2022-12-18T01:35:18;5.07;;;2.50;;
7789;SDS011;3939;57.130;-2.086;2022-12-18T01:37:44;4.07;;;2.20;;
7789;SDS011;3939;57.130;-2.086;2022-12-18T01:40:09;4.93;;;2.60;;
7789;SDS011;3939;57.130;-2.086;2022-12-18T01:42:35;6.93;;;2.73;;
7789;SDS011;3939;57.130;-2.086;2022-12-18T01:45:03;4.50;;;2.20;;
7789;SDS011;3939;57.130;-2.086;2022-12-18T01:50:06;6.77;;;2.70;;
7789;SDS011;3939;57.130;-2.086;2022-12-18T01:52:35;4.23;;;2.50;;
7789;SDS011;3939;57.130;-2.086;2022-12-18T01:55:02;5.50;;;2.30;;
7789;SDS011;3939;57.130;-2.086;2022-12-18T01:57:30;4.97;;;2.70;;
7789;SDS011;3939;57.130;-2.086;2022-12-18T01:59:59;4.97;;;2.47;;
7789;SDS011;3939;57.130;-2.086;2022-12-18T02:02:29;7.23;;;3.00;;
7789;SDS011;3939;57.130;-2.086;2022-12-18T02:04:55;7.10;;;3.20;;
7789;SDS011;3939;57.130;-2.086;2022-12-18T02:07:45;4.67;;;2.70;;
7789;SDS011;3939;57.130;-2.086;2022-12-18T02:12:47;4.47;;;2.90;;
7789;SDS011;3939;57.130;-2.086;2022-12-18T02:18:05;4.77;;;2.77;;
7789;SDS011;3939;57.130;-2.086;2022-12-18T02:20:38;4.17;;;2.63;;
7789;SDS011;3939;57.130;-2.086;2022-12-18T02:26:06;4.37;;;2.70;;
7789;SDS011;3939;57.130;-2.086;2022-12-18T02:28:41;4.97;;;2.77;;
7789;SDS011;3939;57.130;-2.086;2022-12-18T02:31:11;6.37;;;3.20;;
7789;SDS011;3939;57.130;-2.086;2022-12-18T02:33:43;5.87;;;3.00;;
7789;SDS011;3939;57.130;-2.086;2022-12-18T02:36:10;5.73;;;3.20;;
7789;SDS011;3939;57.130;-2.086;2022-12-18T02:38:39;4.83;;;2.80;;
7789;SDS011;3939;57.130;-2.086;2022-12-18T02:41:06;4.47;;;2.90;;
7789;SDS011;3939;57.130;-2.086;2022-12-18T02:43:33;3.93;;;2.30;;
7789;SDS011;3939;57.130;-2.086;2022-12-18T02:45:59;4.30;;;2.77;;
7789;SDS011;3939;57.130;-2.086;2022-12-18T02:48:45;5.70;;;2.60;;
7789;SDS011;3939;57.130;-2.086;2022-12-18T02:51:22;6.53;;;3.13;;
7789;SDS011;3939;57.130;-2.086;2022-12-18T02:53:56;5.20;;;3.03;;
7789;SDS011;3939;57.130;-2.086;2022-12-18T02:56:35;4.67;;;2.77;;
7789;SDS011;3939;57.130;-2.086;2022-12-18T02:59:06;4.07;;;2.67;;
7789;SDS011;3939;57.130;-2.086;2022-12-18T03:04:12;4.33;;;3.00;;
7789;SDS011;3939;57.130;-2.086;2022-12-18T03:07:04;14.13;;;3.00;;
7789;SDS011;3939;57.130;-2.086;2022-12-18T03:09:38;3.90;;;2.70;;
7789;SDS011;3939;57.130;-2.086;2022-12-18T03:12:43;4.47;;;2.77;;
7789;SDS011;3939;57.130;-2.086;2022-12-18T03:17:42;6.10;;;2.90;;
7789;SDS011;3939;57.130;-2.086;2022-12-18T03:20:14;6.00;;;3.10;;
7789;SDS011;3939;57.130;-2.086;2022-12-18T03:22:44;4.37;;;2.93;;
7789;SDS011;3939;57.130;-2.086;2022-12-18T03:25:15;5.93;;;3.27;;
7789;SDS011;3939;57.130;-2.086;2022-12-18T03:27:47;4.00;;;2.63;;
7789;SDS011;3939;57.130;-2.086;2022-12-18T03:30:16;3.70;;;2.63;;
7789;SDS011;3939;57.130;-2.086;2022-12-18T03:35:22;4.33;;;2.67;;
7789;SDS011;3939;57.130;-2.086;2022-12-18T03:37:53;4.50;;;3.00;;
7789;SDS011;3939;57.130;-2.086;2022-12-18T03:40:20;4.57;;;2.37;;
7789;SDS011;3939;57.130;-2.086;2022-12-18T03:42:55;5.23;;;2.50;;
7789;SDS011;3939;57.130;-2.086;2022-12-18T03:45:37;6.73;;;3.00;;
7789;SDS011;3939;57.130;-2.086;2022-12-18T03:48:19;3.70;;;2.83;;
7789;SDS011;3939;57.130;-2.086;2022-12-18T03:51:11;6.20;;;2.77;;
7789;SDS011;3939;57.130;-2.086;2022-12-18T03:56:21;4.07;;;3.10;;
7789;SDS011;3939;57.130;-2.086;2022-12-18T03:58:49;5.53;;;2.73;;
7789;SDS011;3939;57.130;-2.086;2022-12-18T04:01:17;6.17;;;3.00;;
7789;SDS011;3939;57.130;-2.086;2022-12-18T04:03:47;4.60;;;2.73;;
7789;SDS011;3939;57.130;-2.086;2022-12-18T04:06:15;5.97;;;2.80;;
7789;SDS011;3939;57.130;-2.086;2022-12-18T04:08:41;6.90;;;2.80;;
7789;SDS011;3939;57.130;-2.086;2022-12-18T04:11:08;3.87;;;2.20;;
7789;SDS011;3939;57.130;-2.086;2022-12-18T04:13:35;8.07;;;3.00;;
7789;SDS011;3939;57.130;-2.086;2022-12-18T04:16:02;3.57;;;2.13;;
7789;SDS011;3939;57.130;-2.086;2022-12-18T04:18:28;7.10;;;2.87;;
7789;SDS011;3939;57.130;-2.086;2022-12-18T04:20:54;6.37;;;2.53;;
7789;SDS011;3939;57.130;-2.086;2022-12-18T04:23:20;7.03;;;2.90;;
7789;SDS011;3939;57.130;-2.086;2022-12-18T04:25:49;6.13;;;3.20;;
7789;SDS011;3939;57.130;-2.086;2022-12-18T04:28:15;6.87;;;2.57;;
7789;SDS011;3939;57.130;-2.086;2022-12-18T04:30:40;3.57;;;2.90;;
7789;SDS011;3939;57.130;-2.086;2022-12-18T04:33:10;3.83;;;2.60;;
7789;SDS011;3939;57.130;-2.086;2022-12-18T04:35:38;5.23;;;2.70;;
7789;SDS011;3939;57.130;-2.086;2022-12-18T04:38:05;5.23;;;2.70;;
7789;SDS011;3939;57.130;-2.086;2022-12-18T04:40:34;3.63;;;2.77;;
7789;SDS011;3939;57.130;-2.086;2022-12-18T04:43:01;4.30;;;2.53;;
7789;SDS011;3939;57.130;-2.086;2022-12-18T04:45:26;4.13;;;2.90;;
7789;SDS011;3939;57.130;-2.086;2022-12-18T04:47:52;5.37;;;2.87;;
7789;SDS011;3939;57.130;-2.086;2022-12-18T04:50:18;3.47;;;2.73;;
7789;SDS011;3939;57.130;-2.086;2022-12-18T04:52:44;4.20;;;3.07;;
7789;SDS011;3939;57.130;-2.086;2022-12-18T04:55:09;5.30;;;3.20;;
7789;SDS011;3939;57.130;-2.086;2022-12-18T04:57:35;5.20;;;2.90;;
7789;SDS011;3939;57.130;-2.086;2022-12-18T05:00:01;4.67;;;3.03;;
7789;SDS011;3939;57.130;-2.086;2022-12-18T05:02:27;4.23;;;3.00;;
7789;SDS011;3939;57.130;-2.086;2022-12-18T05:04:53;4.23;;;3.10;;
7789;SDS011;3939;57.130;-2.086;2022-12-18T05:07:19;5.80;;;3.10;;
7789;SDS011;3939;57.130;-2.086;2022-12-18T05:09:44;4.23;;;3.20;;
7789;SDS011;3939;57.130;-2.086;2022-12-18T05:12:10;4.53;;;2.83;;
7789;SDS011;3939;57.130;-2.086;2022-12-18T05:14:36;3.97;;;2.73;;
7789;SDS011;3939;57.130;-2.086;2022-12-18T05:17:01;6.27;;;2.80;;
7789;SDS011;3939;57.130;-2.086;2022-12-18T05:19:27;4.00;;;2.70;;
7789;SDS011;3939;57.130;-2.086;2022-12-18T05:21:53;7.20;;;3.00;;
7789;SDS011;3939;57.130;-2.086;2022-12-18T05:24:18;5.27;;;2.80;;
7789;SDS011;3939;57.130;-2.086;2022-12-18T05:26:44;7.87;;;2.90;;
7789;SDS011;3939;57.130;-2.086;2022-12-18T05:29:10;8.27;;;3.33;;
7789;SDS011;3939;57.130;-2.086;2022-12-18T05:31:37;5.60;;;2.93;;
7789;SDS011;3939;57.130;-2.086;2022-12-18T05:34:03;4.17;;;3.10;;
7789;SDS011;3939;57.130;-2.086;2022-12-18T05:36:29;4.50;;;3.10;;
7789;SDS011;3939;57.130;-2.086;2022-12-18T05:38:55;6.20;;;3.47;;
7789;SDS011;3939;57.130;-2.086;2022-12-18T05:41:21;3.77;;;2.30;;
7789;SDS011;3939;57.130;-2.086;2022-12-18T05:43:47;7.53;;;3.10;;
7789;SDS011;3939;57.130;-2.086;2022-12-18T05:46:14;5.40;;;2.77;;
7789;SDS011;3939;57.130;-2.086;2022-12-18T05:48:41;5.93;;;3.07;;
7789;SDS011;3939;57.130;-2.086;2022-12-18T05:51:09;6.23;;;3.33;;
7789;SDS011;3939;57.130;-2.086;2022-12-18T05:53:36;6.50;;;3.67;;
7789;SDS011;3939;57.130;-2.086;2022-12-18T05:56:03;4.80;;;3.43;;
7789;SDS011;3939;57.130;-2.086;2022-12-18T05:58:30;5.63;;;3.30;;
7789;SDS011;3939;57.130;-2.086;2022-12-18T06:00:56;6.03;;;3.27;;
7789;SDS011;3939;57.130;-2.086;2022-12-18T06:03:23;5.57;;;3.40;;
7789;SDS011;3939;57.130;-2.086;2022-12-18T06:05:49;4.60;;;3.50;;
7789;SDS011;3939;57.130;-2.086;2022-12-18T06:08:14;5.70;;;3.70;;
7789;SDS011;3939;57.130;-2.086;2022-12-18T06:10:40;5.97;;;3.87;;
7789;SDS011;3939;57.130;-2.086;2022-12-18T06:13:06;3.67;;;3.10;;
7789;SDS011;3939;57.130;-2.086;2022-12-18T06:15:35;4.30;;;3.13;;
7789;SDS011;3939;57.130;-2.086;2022-12-18T06:18:02;7.83;;;3.90;;
7789;SDS011;3939;57.130;-2.086;2022-12-18T06:20:31;7.40;;;3.40;;
7789;SDS011;3939;57.130;-2.086;2022-12-18T06:22:57;5.83;;;3.67;;
7789;SDS011;3939;57.130;-2.086;2022-12-18T06:25:22;5.20;;;3.87;;
7789;SDS011;3939;57.130;-2.086;2022-12-18T06:27:48;9.13;;;3.87;;
7789;SDS011;3939;57.130;-2.086;2022-12-18T06:30:14;8.00;;;3.67;;
7789;SDS011;3939;57.130;-2.086;2022-12-18T06:32:40;5.80;;;3.23;;
7789;SDS011;3939;57.130;-2.086;2022-12-18T06:35:06;4.67;;;3.20;;
7789;SDS011;3939;57.130;-2.086;2022-12-18T06:37:32;8.30;;;3.57;;
7789;SDS011;3939;57.130;-2.086;2022-12-18T06:39:57;4.87;;;2.93;;
7789;SDS011;3939;57.130;-2.086;2022-12-18T06:42:24;3.70;;;3.03;;
7789;SDS011;3939;57.130;-2.086;2022-12-18T06:44:50;5.33;;;3.23;;
7789;SDS011;3939;57.130;-2.086;2022-12-18T06:47:16;4.23;;;2.80;;
7789;SDS011;3939;57.130;-2.086;2022-12-18T06:49:41;5.10;;;3.33;;
7789;SDS011;3939;57.130;-2.086;2022-12-18T06:52:07;7.00;;;3.73;;
7789;SDS011;3939;57.130;-2.086;2022-12-18T06:54:33;6.20;;;3.73;;
7789;SDS011;3939;57.130;-2.086;2022-12-18T06:56:59;4.83;;;3.30;;
7789;SDS011;3939;57.130;-2.086;2022-12-18T06:59:25;5.50;;;3.50;;
7789;SDS011;3939;57.130;-2.086;2022-12-18T07:01:50;7.17;;;4.23;;
7789;SDS011;3939;57.130;-2.086;2022-12-18T07:04:16;7.47;;;3.63;;
7789;SDS011;3939;57.130;-2.086;2022-12-18T07:06:42;4.67;;;3.13;;
7789;SDS011;3939;57.130;-2.086;2022-12-18T07:09:08;8.97;;;3.80;;
7789;SDS011;3939;57.130;-2.086;2022-12-18T07:11:33;6.27;;;3.93;;
7789;SDS011;3939;57.130;-2.086;2022-12-18T07:13:59;6.93;;;4.23;;
7789;SDS011;3939;57.130;-2.086;2022-12-18T07:16:25;6.90;;;3.53;;
7789;SDS011;3939;57.130;-2.086;2022-12-18T07:18:51;6.40;;;3.63;;
7789;SDS011;3939;57.130;-2.086;2022-12-18T07:21:19;6.03;;;3.27;;
7789;SDS011;3939;57.130;-2.086;2022-12-18T07:23:45;5.03;;;3.20;;
7789;SDS011;3939;57.130;-2.086;2022-12-18T07:26:13;5.40;;;3.17;;
7789;SDS011;3939;57.130;-2.086;2022-12-18T07:28:40;5.63;;;3.80;;
7789;SDS011;3939;57.130;-2.086;2022-12-18T07:31:06;7.37;;;3.33;;
7789;SDS011;3939;57.130;-2.086;2022-12-18T07:33:34;5.67;;;3.50;;
7789;SDS011;3939;57.130;-2.086;2022-12-18T07:36:00;5.40;;;3.53;;
7789;SDS011;3939;57.130;-2.086;2022-12-18T07:38:27;6.17;;;3.60;;
7789;SDS011;3939;57.130;-2.086;2022-12-18T07:40:53;6.23;;;3.30;;
7789;SDS011;3939;57.130;-2.086;2022-12-18T07:43:19;6.03;;;3.03;;
7789;SDS011;3939;57.130;-2.086;2022-12-18T07:45:45;12.73;;;5.27;;
7789;SDS011;3939;57.130;-2.086;2022-12-18T07:48:10;4.77;;;3.63;;
7789;SDS011;3939;57.130;-2.086;2022-12-18T07:50:36;4.80;;;3.03;;
7789;SDS011;3939;57.130;-2.086;2022-12-18T07:53:02;5.23;;;3.40;;
7789;SDS011;3939;57.130;-2.086;2022-12-18T07:55:28;4.60;;;3.40;;
7789;SDS011;3939;57.130;-2.086;2022-12-18T07:57:55;6.13;;;3.73;;
7789;SDS011;3939;57.130;-2.086;2022-12-18T08:00:21;8.63;;;3.53;;
7789;SDS011;3939;57.130;-2.086;2022-12-18T08:02:47;4.23;;;3.37;;
7789;SDS011;3939;57.130;-2.086;2022-12-18T08:05:13;7.20;;;3.53;;
7789;SDS011;3939;57.130;-2.086;2022-12-18T08:07:40;9.50;;;4.17;;
7789;SDS011;3939;57.130;-2.086;2022-12-18T08:10:06;6.03;;;3.50;;
7789;SDS011;3939;57.130;-2.086;2022-12-18T08:12:32;4.60;;;3.07;;
7789;SDS011;3939;57.130;-2.086;2022-12-18T08:15:01;6.10;;;3.37;;
7789;SDS011;3939;57.130;-2.086;2022-12-18T08:17:26;7.70;;;3.40;;
7789;SDS011;3939;57.130;-2.086;2022-12-18T08:19:52;4.97;;;3.03;;
7789;SDS011;3939;57.130;-2.086;2022-12-18T08:22:18;4.10;;;3.00;;
7789;SDS011;3939;57.130;-2.086;2022-12-18T08:24:44;5.20;;;3.17;;
7789;SDS011;3939;57.130;-2.086;2022-12-18T08:27:10;5.53;;;3.10;;
7789;SDS011;3939;57.130;-2.086;2022-12-18T08:29:35;4.13;;;3.10;;
7789;SDS011;3939;57.130;-2.086;2022-12-18T08:32:01;7.33;;;3.40;;
7789;SDS011;3939;57.130;-2.086;2022-12-18T08:34:27;5.97;;;3.90;;
7789;SDS011;3939;57.130;-2.086;2022-12-18T08:36:53;7.63;;;4.10;;
7789;SDS011;3939;57.130;-2.086;2022-12-18T08:39:19;9.07;;;4.10;;
7789;SDS011;3939;57.130;-2.086;2022-12-18T08:41:44;6.80;;;3.70;;
7789;SDS011;3939;57.130;-2.086;2022-12-18T08:44:30;6.95;;;4.47;;
7789;SDS011;3939;57.130;-2.086;2022-12-18T08:47:05;5.77;;;3.70;;
7789;SDS011;3939;57.130;-2.086;2022-12-18T08:49:32;8.30;;;3.60;;
7789;SDS011;3939;57.130;-2.086;2022-12-18T08:51:58;6.63;;;3.47;;
7789;SDS011;3939;57.130;-2.086;2022-12-18T08:54:24;7.13;;;3.87;;
7789;SDS011;3939;57.130;-2.086;2022-12-18T08:56:50;5.63;;;3.43;;
7789;SDS011;3939;57.130;-2.086;2022-12-18T08:59:17;9.73;;;3.07;;
7789;SDS011;3939;57.130;-2.086;2022-12-18T09:01:43;4.77;;;3.70;;
7789;SDS011;3939;57.130;-2.086;2022-12-18T09:04:10;5.57;;;2.87;;
7789;SDS011;3939;57.130;-2.086;2022-12-18T09:06:35;5.57;;;1.80;;
7789;SDS011;3939;57.130;-2.086;2022-12-18T09:09:02;2.97;;;1.37;;
7789;SDS011;3939;57.130;-2.086;2022-12-18T09:11:28;8.83;;;1.90;;
7789;SDS011;3939;57.130;-2.086;2022-12-18T09:13:55;7.80;;;1.67;;
7789;SDS011;3939;57.130;-2.086;2022-12-18T09:16:22;5.30;;;1.90;;
7789;SDS011;3939;57.130;-2.086;2022-12-18T09:18:49;3.50;;;1.73;;
7789;SDS011;3939;57.130;-2.086;2022-12-18T09:21:16;8.20;;;1.90;;
7789;SDS011;3939;57.130;-2.086;2022-12-18T09:23:48;7.10;;;2.00;;
7789;SDS011;3939;57.130;-2.086;2022-12-18T09:26:16;5.40;;;1.67;;
7789;SDS011;3939;57.130;-2.086;2022-12-18T09:28:44;8.80;;;2.70;;
7789;SDS011;3939;57.130;-2.086;2022-12-18T09:31:11;8.63;;;1.43;;
7789;SDS011;3939;57.130;-2.086;2022-12-18T09:33:40;6.87;;;1.90;;
7789;SDS011;3939;57.130;-2.086;2022-12-18T09:36:07;5.17;;;1.60;;
7789;SDS011;3939;57.130;-2.086;2022-12-18T09:38:34;4.27;;;2.33;;
7789;SDS011;3939;57.130;-2.086;2022-12-18T09:46:11;6.37;;;2.20;;
7789;SDS011;3939;57.130;-2.086;2022-12-18T09:48:46;4.93;;;1.90;;
7789;SDS011;3939;57.130;-2.086;2022-12-18T09:51:15;5.60;;;1.87;;
7789;SDS011;3939;57.130;-2.086;2022-12-18T09:54:05;2.77;;;1.53;;
7789;SDS011;3939;57.130;-2.086;2022-12-18T09:56:37;4.73;;;2.40;;
7789;SDS011;3939;57.130;-2.086;2022-12-18T09:59:09;5.97;;;2.70;;
7789;SDS011;3939;57.130;-2.086;2022-12-18T10:02:20;9.17;;;3.30;;
7789;SDS011;3939;57.130;-2.086;2022-12-18T10:04:54;11.77;;;3.03;;
7789;SDS011;3939;57.130;-2.086;2022-12-18T10:07:28;7.03;;;2.60;;
7789;SDS011;3939;57.130;-2.086;2022-12-18T10:10:13;6.90;;;3.27;;
7789;SDS011;3939;57.130;-2.086;2022-12-18T10:13:07;9.37;;;3.70;;
7789;SDS011;3939;57.130;-2.086;2022-12-18T10:18:36;8.60;;;3.87;;
7789;SDS011;3939;57.130;-2.086;2022-12-18T10:21:13;7.60;;;3.23;;
7789;SDS011;3939;57.130;-2.086;2022-12-18T10:23:47;11.40;;;3.00;;
7789;SDS011;3939;57.130;-2.086;2022-12-18T10:26:22;6.03;;;2.70;;
7789;SDS011;3939;57.130;-2.086;2022-12-18T10:28:48;9.20;;;3.07;;
7789;SDS011;3939;57.130;-2.086;2022-12-18T10:31:15;9.00;;;2.60;;
7789;SDS011;3939;57.130;-2.086;2022-12-18T10:33:43;8.63;;;2.70;;
7789;SDS011;3939;57.130;-2.086;2022-12-18T10:36:12;12.27;;;3.77;;
7789;SDS011;3939;57.130;-2.086;2022-12-18T10:38:38;10.87;;;3.10;;
7789;SDS011;3939;57.130;-2.086;2022-12-18T10:41:05;11.03;;;2.50;;
7789;SDS011;3939;57.130;-2.086;2022-12-18T10:46:37;9.10;;;2.90;;
7789;SDS011;3939;57.130;-2.086;2022-12-18T10:49:03;9.07;;;2.97;;
7789;SDS011;3939;57.130;-2.086;2022-12-18T10:51:30;8.83;;;2.33;;
7789;SDS011;3939;57.130;-2.086;2022-12-18T10:54:04;9.37;;;2.63;;
7789;SDS011;3939;57.130;-2.086;2022-12-18T10:56:46;9.63;;;2.93;;
7789;SDS011;3939;57.130;-2.086;2022-12-18T10:59:15;17.27;;;2.90;;
7789;SDS011;3939;57.130;-2.086;2022-12-18T11:04:24;14.57;;;2.97;;
7789;SDS011;3939;57.130;-2.086;2022-12-18T11:09:31;8.63;;;2.13;;
7789;SDS011;3939;57.130;-2.086;2022-12-18T11:12:02;11.63;;;2.90;;
7789;SDS011;3939;57.130;-2.086;2022-12-18T11:15:13;12.17;;;3.00;;
7789;SDS011;3939;57.130;-2.086;2022-12-18T11:18:03;9.63;;;2.90;;
7789;SDS011;3939;57.130;-2.086;2022-12-18T11:20:30;12.80;;;2.57;;
7789;SDS011;3939;57.130;-2.086;2022-12-18T11:23:00;12.43;;;3.00;;
7789;SDS011;3939;57.130;-2.086;2022-12-18T11:25:33;5.00;;;2.03;;
7789;SDS011;3939;57.130;-2.086;2022-12-18T11:28:00;7.80;;;2.33;;
7789;SDS011;3939;57.130;-2.086;2022-12-18T11:30:32;15.10;;;2.33;;
7789;SDS011;3939;57.130;-2.086;2022-12-18T11:33:05;9.93;;;2.40;;
7789;SDS011;3939;57.130;-2.086;2022-12-18T11:35:50;8.47;;;2.00;;
7789;SDS011;3939;57.130;-2.086;2022-12-18T11:38:29;8.33;;;1.97;;
7789;SDS011;3939;57.130;-2.086;2022-12-18T11:43:45;8.20;;;2.20;;
7789;SDS011;3939;57.130;-2.086;2022-12-18T11:46:36;6.47;;;1.33;;
7789;SDS011;3939;57.130;-2.086;2022-12-18T11:49:32;7.00;;;1.80;;
7789;SDS011;3939;57.130;-2.086;2022-12-18T11:54:41;10.70;;;2.87;;
7789;SDS011;3939;57.130;-2.086;2022-12-18T11:57:18;11.37;;;2.60;;
7789;SDS011;3939;57.130;-2.086;2022-12-18T12:08:40;7.80;;;2.40;;
7789;SDS011;3939;57.130;-2.086;2022-12-18T12:38:24;11.53;;;2.67;;
7789;SDS011;3939;57.130;-2.086;2022-12-18T12:40:57;13.83;;;3.17;;
7789;SDS011;3939;57.130;-2.086;2022-12-18T12:43:38;12.30;;;2.33;;
7789;SDS011;3939;57.130;-2.086;2022-12-18T12:46:12;7.23;;;2.57;;
7789;SDS011;3939;57.130;-2.086;2022-12-18T12:48:52;11.23;;;2.53;;
7789;SDS011;3939;57.130;-2.086;2022-12-18T12:51:24;8.57;;;3.03;;
7789;SDS011;3939;57.130;-2.086;2022-12-18T12:53:50;9.10;;;3.00;;
7789;SDS011;3939;57.130;-2.086;2022-12-18T12:56:21;11.17;;;3.60;;
7789;SDS011;3939;57.130;-2.086;2022-12-18T12:59:10;16.13;;;4.33;;
7789;SDS011;3939;57.130;-2.086;2022-12-18T13:01:40;18.27;;;4.77;;
7789;SDS011;3939;57.130;-2.086;2022-12-18T13:04:26;12.67;;;4.20;;
7789;SDS011;3939;57.130;-2.086;2022-12-18T13:07:16;10.23;;;3.80;;
7789;SDS011;3939;57.130;-2.086;2022-12-18T13:16:07;9.17;;;2.93;;
7789;SDS011;3939;57.130;-2.086;2022-12-18T13:18:35;9.00;;;3.17;;
7789;SDS011;3939;57.130;-2.086;2022-12-18T13:21:24;13.13;;;3.83;;
7789;SDS011;3939;57.130;-2.086;2022-12-18T13:27:04;12.33;;;3.70;;
7789;SDS011;3939;57.130;-2.086;2022-12-18T13:30:11;14.30;;;4.63;;
7789;SDS011;3939;57.130;-2.086;2022-12-18T13:35:58;12.00;;;3.83;;
7789;SDS011;3939;57.130;-2.086;2022-12-18T13:38:41;18.37;;;4.27;;
7789;SDS011;3939;57.130;-2.086;2022-12-18T13:41:26;20.87;;;4.90;;
7789;SDS011;3939;57.130;-2.086;2022-12-18T13:43:55;11.43;;;4.30;;
7789;SDS011;3939;57.130;-2.086;2022-12-18T13:46:50;13.60;;;5.00;;
7789;SDS011;3939;57.130;-2.086;2022-12-18T13:49:26;21.10;;;5.30;;
7789;SDS011;3939;57.130;-2.086;2022-12-18T13:52:03;15.37;;;4.73;;
7789;SDS011;3939;57.130;-2.086;2022-12-18T13:54:50;16.57;;;5.27;;
7789;SDS011;3939;57.130;-2.086;2022-12-18T13:57:45;11.47;;;5.03;;
7789;SDS011;3939;57.130;-2.086;2022-12-18T14:02:57;18.23;;;4.87;;
7789;SDS011;3939;57.130;-2.086;2022-12-18T14:08:38;12.53;;;4.97;;
7789;SDS011;3939;57.130;-2.086;2022-12-18T14:11:18;16.13;;;6.47;;
7789;SDS011;3939;57.130;-2.086;2022-12-18T14:13:46;14.53;;;4.97;;
7789;SDS011;3939;57.130;-2.086;2022-12-18T14:16:13;14.83;;;4.50;;
7789;SDS011;3939;57.130;-2.086;2022-12-18T14:18:54;13.47;;;5.40;;
7789;SDS011;3939;57.130;-2.086;2022-12-18T14:21:26;18.67;;;5.57;;
7789;SDS011;3939;57.130;-2.086;2022-12-18T14:24:04;17.90;;;4.80;;
7789;SDS011;3939;57.130;-2.086;2022-12-18T14:26:40;12.80;;;4.20;;
7789;SDS011;3939;57.130;-2.086;2022-12-18T14:29:25;12.13;;;3.80;;
7789;SDS011;3939;57.130;-2.086;2022-12-18T14:32:06;9.27;;;3.83;;
7789;SDS011;3939;57.130;-2.086;2022-12-18T14:34:52;8.90;;;3.17;;
7789;SDS011;3939;57.130;-2.086;2022-12-18T14:37:46;10.40;;;3.80;;
7789;SDS011;3939;57.130;-2.086;2022-12-18T14:40:12;9.87;;;3.83;;
7789;SDS011;3939;57.130;-2.086;2022-12-18T14:42:38;15.07;;;3.87;;
7789;SDS011;3939;57.130;-2.086;2022-12-18T14:50:54;11.57;;;2.80;;
7789;SDS011;3939;57.130;-2.086;2022-12-18T14:56:25;14.00;;;2.87;;
7789;SDS011;3939;57.130;-2.086;2022-12-18T14:58:59;13.63;;;3.53;;
7789;SDS011;3939;57.130;-2.086;2022-12-18T15:01:33;14.20;;;4.07;;
7789;SDS011;3939;57.130;-2.086;2022-12-18T15:04:18;10.47;;;3.47;;
7789;SDS011;3939;57.130;-2.086;2022-12-18T15:07:18;16.77;;;3.30;;
7789;SDS011;3939;57.130;-2.086;2022-12-18T15:12:37;12.67;;;3.93;;
7789;SDS011;3939;57.130;-2.086;2022-12-18T15:26:03;14.70;;;3.37;;
7789;SDS011;3939;57.130;-2.086;2022-12-18T15:28:32;15.17;;;3.87;;
7789;SDS011;3939;57.130;-2.086;2022-12-18T15:36:18;12.70;;;3.77;;
7789;SDS011;3939;57.130;-2.086;2022-12-18T15:38:46;12.80;;;3.10;;
7789;SDS011;3939;57.130;-2.086;2022-12-18T15:41:13;14.90;;;3.43;;
7789;SDS011;3939;57.130;-2.086;2022-12-18T15:43:40;12.10;;;3.50;;
7789;SDS011;3939;57.130;-2.086;2022-12-18T15:46:14;17.93;;;3.70;;
7789;SDS011;3939;57.130;-2.086;2022-12-18T15:48:42;14.80;;;4.33;;
7789;SDS011;3939;57.130;-2.086;2022-12-18T15:51:56;13.27;;;3.43;;
7789;SDS011;3939;57.130;-2.086;2022-12-18T15:54:00;15.47;;;3.50;;
7789;SDS011;3939;57.130;-2.086;2022-12-18T15:56:28;17.10;;;5.27;;
7789;SDS011;3939;57.130;-2.086;2022-12-18T15:59:14;15.47;;;3.83;;
7789;SDS011;3939;57.130;-2.086;2022-12-18T16:01:42;11.30;;;3.20;;
7789;SDS011;3939;57.130;-2.086;2022-12-18T16:04:11;13.10;;;3.30;;
7789;SDS011;3939;57.130;-2.086;2022-12-18T16:06:38;13.50;;;3.30;;
7789;SDS011;3939;57.130;-2.086;2022-12-18T16:09:04;15.13;;;3.40;;
7789;SDS011;3939;57.130;-2.086;2022-12-18T16:11:30;20.93;;;4.80;;
7789;SDS011;3939;57.130;-2.086;2022-12-18T16:14:18;13.33;;;2.97;;
7789;SDS011;3939;57.130;-2.086;2022-12-18T16:17:10;14.30;;;3.03;;
7789;SDS011;3939;57.130;-2.086;2022-12-18T16:19:35;12.03;;;2.73;;
7789;SDS011;3939;57.130;-2.086;2022-12-18T16:22:04;8.87;;;2.67;;
7789;SDS011;3939;57.130;-2.086;2022-12-18T16:24:31;15.33;;;3.80;;
7789;SDS011;3939;57.130;-2.086;2022-12-18T16:27:01;17.20;;;3.70;;
7789;SDS011;3939;57.130;-2.086;2022-12-18T16:29:27;16.00;;;3.47;;
7789;SDS011;3939;57.130;-2.086;2022-12-18T16:31:56;18.43;;;3.50;;
7789;SDS011;3939;57.130;-2.086;2022-12-18T16:34:24;14.90;;;2.83;;
7789;SDS011;3939;57.130;-2.086;2022-12-18T16:36:53;13.97;;;3.90;;
7789;SDS011;3939;57.130;-2.086;2022-12-18T16:39:23;15.20;;;3.93;;
7789;SDS011;3939;57.130;-2.086;2022-12-18T16:41:49;15.30;;;3.97;;
7789;SDS011;3939;57.130;-2.086;2022-12-18T16:44:15;14.73;;;3.90;;
7789;SDS011;3939;57.130;-2.086;2022-12-18T16:46:42;15.83;;;3.57;;
7789;SDS011;3939;57.130;-2.086;2022-12-18T16:49:10;13.13;;;3.33;;
7789;SDS011;3939;57.130;-2.086;2022-12-18T16:51:39;16.43;;;3.37;;
7789;SDS011;3939;57.130;-2.086;2022-12-18T16:54:05;11.77;;;3.60;;
7789;SDS011;3939;57.130;-2.086;2022-12-18T16:56:31;15.33;;;4.40;;
7789;SDS011;3939;57.130;-2.086;2022-12-18T16:58:57;15.27;;;4.23;;
7789;SDS011;3939;57.130;-2.086;2022-12-18T17:01:27;15.70;;;3.53;;
7789;SDS011;3939;57.130;-2.086;2022-12-18T17:03:55;11.10;;;2.73;;
7789;SDS011;3939;57.130;-2.086;2022-12-18T17:06:22;19.00;;;3.80;;
7789;SDS011;3939;57.130;-2.086;2022-12-18T17:09:03;19.37;;;4.53;;
7789;SDS011;3939;57.130;-2.086;2022-12-18T17:11:31;15.00;;;4.10;;
7789;SDS011;3939;57.130;-2.086;2022-12-18T17:13:58;18.97;;;4.07;;
7789;SDS011;3939;57.130;-2.086;2022-12-18T17:16:24;11.70;;;4.07;;
7789;SDS011;3939;57.130;-2.086;2022-12-18T17:18:53;20.47;;;4.70;;
7789;SDS011;3939;57.130;-2.086;2022-12-18T17:21:19;20.37;;;4.70;;
7789;SDS011;3939;57.130;-2.086;2022-12-18T17:23:44;17.00;;;3.60;;